KCAE/CAE METAR and TAF weather

Enter ICAO airport designator
Station Type Date Time Source
KCAE METAR 2020/07/15 06:56 UTC NOAA

KCAE 150656Z 00000KT 10SM OVC080 27/23 A3000 RMK AO2 SLP155 T02720228


Station Type Date Time Source
KCAE Decoded METAR 2020/07/15 06:56 UTC NOAA

COLUMBIA METROPOLITAN AIRPORT , SC, United States (KCAE) 33-57N 081-07W 73M
Jul 15, 2020 - 02:56 AM EDT / 2020.07.15 0656 UTC
Wind: Calm:0
Visibility: 10 mile(s):0
Sky conditions: overcast
Temperature: 81.0 F (27.2 C)
Dew Point: 73.0 F (22.8 C)
Relative Humidity: 76%
Pressure (altimeter): 30 in. Hg (1015 hPa)
ob: KCAE 150656Z 00000KT 10SM OVC080 27/23 A3000 RMK AO2 SLP155 T02720228
cycle: 7

Station Type Date Time Source
KCAE TAF 2020/07/15 06:36 UTC NOAA

TAF KCAE 150533Z 1506/1606 VRB04KT P6SM FEW060
FM151500 13006KT P6SM SCT060

Example: see airport list